Terminal Aerodrome Forecast
Issued by NWS Raleigh/Durham, NC

Home | Current Version | Previous Version | Text Only | Print | Product List | Glossary On
Versions: 1 2 3 4 5 6 7 8 9 10 11 12 13 14 15 16 17 18 19 20 21 22 23 24 25 26 27 28 29 30 31 32 33 34 35 36
000
FTUS42 KRAH 042338
TAFFAY
TAF
KFAY 042338Z 0500/0524 06007KT P6SM FEW050 SCT120 BKN250
      TEMPO 0500/0501 6SM -SHRA BKN035
     FM050900 02007KT P6SM FEW015 SCT250
      TEMPO 0509/0513 5SM BR BKN015
     FM051700 03010KT P6SM SCT025 BKN035=

USA.gov is the U.S. government's official web portal to all federal, state and local government web resources and services.